createdAt,value
2022-09-13T00:01:09.726Z,99.90
2022-09-13T00:03:40.477Z,99.90
2022-09-13T00:06:19.607Z,99.90
2022-09-13T00:08:47.860Z,99.90
2022-09-13T00:11:28.287Z,99.90
2022-09-13T00:13:56.846Z,99.90
2022-09-13T00:16:29.041Z,99.90
2022-09-13T00:18:56.531Z,99.90
2022-09-13T00:21:27.870Z,99.90
2022-09-13T00:23:57.664Z,99.90
2022-09-13T00:26:28.263Z,99.90
2022-09-13T00:28:59.643Z,99.90
2022-09-13T00:31:28.837Z,99.90
2022-09-13T00:33:58.574Z,99.90
2022-09-13T00:36:25.706Z,99.90
2022-09-13T00:38:52.704Z,99.90
2022-09-13T00:41:21.446Z,99.90
2022-09-13T00:43:54.522Z,99.90
2022-09-13T00:46:41.598Z,99.90
2022-09-13T00:49:12.212Z,99.90
2022-09-13T00:51:42.844Z,99.90
2022-09-13T00:54:11.059Z,99.90
2022-09-13T00:56:47.509Z,99.90
2022-09-13T00:59:41.564Z,99.90
2022-09-13T01:02:09.292Z,99.90
2022-09-13T01:04:37.392Z,99.90
2022-09-13T01:07:11.684Z,99.90
2022-09-13T01:09:46.469Z,99.90
2022-09-13T01:12:33.343Z,99.90
2022-09-13T01:15:04.297Z,99.90
2022-09-13T01:17:33.803Z,99.90
2022-09-13T01:20:06.666Z,99.90
2022-09-13T01:23:15.807Z,99.90
2022-09-13T01:25:54.435Z,99.90
2022-09-13T01:28:55.774Z,99.90
2022-09-13T01:31:45.861Z,99.90
2022-09-13T01:34:28.161Z,99.90
2022-09-13T01:37:33.669Z,99.90
2022-09-13T01:40:35.539Z,99.90
2022-09-13T01:43:31.592Z,99.90
2022-09-13T01:46:13.587Z,99.90
2022-09-13T01:49:10.522Z,99.90
2022-09-13T01:51:47.987Z,99.90
2022-09-13T01:54:29.847Z,99.90
2022-09-13T01:57:28.021Z,99.90
2022-09-13T02:00:14.733Z,99.90
2022-09-13T02:03:06.041Z,99.90
2022-09-13T02:05:57.601Z,99.90
2022-09-13T02:08:51.204Z,99.90
2022-09-13T02:11:22.501Z,99.90
2022-09-13T02:14:20.040Z,99.90
2022-09-13T02:17:04.430Z,99.90
2022-09-13T02:19:51.986Z,99.90
2022-09-13T02:22:26.349Z,99.90
2022-09-13T02:25:00.257Z,99.90
2022-09-13T02:27:32.292Z,99.90
2022-09-13T02:30:07.619Z,99.90
2022-09-13T02:32:49.475Z,99.90
2022-09-13T02:35:48.868Z,99.90
2022-09-13T02:38:27.834Z,99.90
2022-09-13T02:41:23.000Z,99.90
2022-09-13T02:44:02.121Z,99.90
2022-09-13T02:47:24.766Z,99.90
2022-09-13T02:50:11.032Z,99.90
2022-09-13T02:52:47.180Z,99.90
2022-09-13T02:55:31.225Z,99.90
2022-09-13T02:58:08.045Z,99.90
2022-09-13T03:00:35.522Z,99.90
2022-09-13T03:03:10.082Z,99.90
2022-09-13T03:05:40.994Z,99.90
2022-09-13T03:08:11.042Z,99.90
2022-09-13T03:10:56.016Z,99.90
2022-09-13T03:13:37.697Z,99.90
2022-09-13T03:16:39.103Z,99.90
2022-09-13T03:19:45.637Z,99.90
2022-09-13T03:22:31.090Z,99.90
2022-09-13T03:25:58.502Z,99.90
2022-09-13T03:28:59.497Z,99.90
2022-09-13T03:32:19.807Z,99.90
2022-09-13T03:35:23.392Z,99.90
2022-09-13T03:38:13.117Z,99.90
2022-09-13T03:40:57.065Z,99.90
2022-09-13T03:43:35.769Z,99.90
2022-09-13T03:46:51.670Z,99.90
2022-09-13T03:49:23.202Z,99.90
2022-09-13T03:51:52.935Z,99.90
2022-09-13T03:54:32.600Z,99.90
2022-09-13T03:57:21.072Z,99.90
2022-09-13T03:59:55.187Z,99.90
2022-09-13T04:04:52.663Z,99.90
2022-09-13T04:07:22.736Z,99.90
2022-09-13T04:09:50.230Z,99.90
2022-09-13T04:12:18.997Z,99.90
2022-09-13T04:14:49.319Z,99.90
2022-09-13T04:17:16.743Z,99.90
2022-09-13T04:19:45.732Z,99.90
2022-09-13T04:22:14.101Z,99.90
2022-09-13T04:24:44.419Z,99.90
2022-09-13T04:27:12.746Z,99.90
2022-09-13T04:29:40.025Z,99.90
2022-09-13T04:32:11.116Z,99.90
2022-09-13T04:34:38.200Z,99.90
2022-09-13T04:37:09.305Z,99.90
2022-09-13T04:39:39.755Z,99.90
2022-09-13T04:42:07.420Z,99.90
2022-09-13T04:44:34.623Z,99.90
2022-09-13T04:47:01.675Z,99.90
2022-09-13T04:49:28.739Z,99.90
2022-09-13T04:51:56.004Z,99.90
2022-09-13T04:54:23.232Z,99.90
2022-09-13T04:56:50.381Z,99.90
2022-09-13T04:59:17.420Z,99.90
2022-09-13T05:01:44.769Z,99.90
2022-09-13T05:04:12.004Z,99.90
2022-09-13T05:06:39.168Z,99.90
2022-09-13T05:09:14.393Z,99.90
2022-09-13T05:11:44.846Z,99.90
2022-09-13T05:14:12.549Z,99.90
2022-09-13T05:16:39.916Z,99.90
2022-09-13T05:19:07.061Z,99.90
2022-09-13T05:21:37.069Z,99.90
2022-09-13T05:24:07.135Z,99.90
2022-09-13T05:26:37.938Z,99.90
2022-09-13T05:29:08.517Z,99.90
2022-09-13T05:31:42.477Z,99.90
2022-09-13T05:34:16.421Z,99.90
2022-09-13T05:36:43.706Z,99.90
2022-09-13T05:42:03.207Z,99.90
2022-09-13T05:44:30.614Z,99.90
2022-09-13T05:46:57.907Z,99.90
2022-09-13T05:49:25.709Z,99.90
2022-09-13T05:51:56.027Z,99.90
2022-09-13T05:54:23.542Z,99.90
2022-09-13T05:56:52.574Z,99.90
2022-09-13T05:59:20.088Z,99.90
2022-09-13T06:01:48.549Z,99.90
2022-09-13T06:04:15.811Z,99.90
2022-09-13T06:06:43.387Z,99.90
2022-09-13T06:09:12.107Z,99.90
2022-09-13T06:11:39.201Z,99.90
2022-09-13T06:14:06.565Z,99.90
2022-09-13T06:16:34.203Z,99.90
2022-09-13T06:19:01.414Z,99.90
2022-09-13T06:21:29.428Z,99.90
2022-09-13T06:23:56.819Z,99.90
2022-09-13T06:26:27.829Z,99.90
2022-09-13T06:28:57.769Z,99.90
2022-09-13T06:31:27.864Z,99.90
2022-09-13T06:34:02.329Z,99.90
2022-09-13T06:36:31.343Z,99.90
2022-09-13T06:39:00.663Z,99.90
2022-09-13T06:41:28.398Z,99.90
2022-09-13T06:43:58.761Z,99.90
2022-09-13T06:46:32.587Z,99.90
2022-09-13T06:49:02.160Z,99.90
2022-09-13T06:51:32.891Z,99.90
2022-09-13T06:54:00.432Z,99.90
2022-09-13T06:56:33.935Z,99.90
2022-09-13T06:59:05.120Z,99.90
2022-09-13T07:01:35.967Z,99.90
2022-09-13T07:04:09.768Z,99.90
2022-09-13T07:06:43.257Z,99.90
2022-09-13T07:09:19.381Z,99.90
2022-09-13T07:11:48.442Z,99.90
2022-09-13T07:14:22.789Z,99.90
2022-09-13T07:16:51.937Z,99.90
2022-09-13T07:19:22.999Z,99.90
2022-09-13T07:21:50.945Z,99.90
2022-09-13T07:24:20.218Z,99.90
2022-09-13T07:26:51.771Z,99.90
2022-09-13T07:29:23.813Z,99.90
2022-09-13T07:31:54.726Z,99.90
2022-09-13T07:34:26.604Z,99.90
2022-09-13T07:36:54.252Z,99.90
2022-09-13T07:39:22.977Z,99.90
2022-09-13T07:41:51.672Z,99.90
2022-09-13T07:44:18.880Z,99.90
2022-09-13T07:46:49.141Z,99.90
2022-09-13T07:49:19.757Z,99.90
2022-09-13T07:51:51.239Z,99.90
2022-09-13T07:54:19.702Z,99.90
2022-09-13T07:56:50.115Z,99.90
2022-09-13T07:59:19.558Z,99.90
2022-09-13T08:01:50.083Z,99.90
2022-09-13T08:04:21.225Z,99.90
2022-09-13T08:06:49.307Z,99.90
2022-09-13T08:09:18.685Z,99.90
2022-09-13T08:11:54.309Z,99.90
2022-09-13T08:14:23.243Z,99.90
2022-09-13T08:16:50.473Z,99.90
2022-09-13T08:19:19.277Z,99.90
2022-09-13T08:21:47.273Z,99.90
2022-09-13T08:24:21.372Z,99.90
2022-09-13T08:26:49.681Z,99.90
2022-09-13T08:29:17.715Z,99.90
2022-09-13T08:31:45.159Z,99.90
2022-09-13T08:34:17.138Z,99.90
2022-09-13T08:36:44.888Z,99.90
2022-09-13T08:39:15.301Z,99.90
2022-09-13T08:41:43.880Z,99.90
2022-09-13T08:44:35.374Z,99.90
2022-09-13T08:47:43.383Z,99.90
2022-09-13T08:50:21.976Z,99.90
2022-09-13T08:53:00.010Z,99.90
2022-09-13T08:55:48.979Z,99.90
2022-09-13T08:59:00.472Z,99.90
2022-09-13T09:02:01.399Z,99.90
2022-09-13T09:04:43.886Z,99.90
2022-09-13T09:07:40.568Z,99.90
2022-09-13T09:10:47.421Z,99.90
2022-09-13T09:13:48.901Z,99.90
2022-09-13T09:16:40.629Z,99.90
2022-09-13T09:19:30.379Z,99.90
2022-09-13T09:21:59.486Z,99.90
2022-09-13T09:24:26.871Z,99.90
2022-09-13T09:26:57.319Z,99.90
2022-09-13T09:29:33.506Z,99.90
2022-09-13T09:32:41.203Z,99.90
2022-09-13T09:35:45.467Z,99.90
2022-09-13T09:38:24.459Z,99.90
2022-09-13T09:40:52.614Z,99.90
2022-09-13T09:43:35.303Z,99.90
2022-09-13T09:46:06.037Z,99.90
2022-09-13T09:48:46.610Z,99.90
2022-09-13T09:51:15.497Z,99.90
2022-09-13T09:53:47.495Z,99.90
2022-09-13T09:56:26.387Z,99.90
2022-09-13T09:58:55.890Z,99.90
2022-09-13T10:01:29.814Z,99.90
2022-09-13T10:04:05.175Z,99.90
2022-09-13T10:06:32.797Z,99.90
2022-09-13T10:09:20.332Z,99.90
2022-09-13T10:11:58.487Z,99.90
2022-09-13T10:14:49.379Z,99.90
2022-09-13T10:17:25.544Z,99.90
2022-09-13T10:20:03.995Z,99.90
2022-09-13T10:22:34.577Z,99.90
2022-09-13T10:25:25.723Z,99.90
2022-09-13T10:27:59.191Z,99.90
2022-09-13T10:30:47.840Z,99.90
2022-09-13T10:33:29.923Z,99.90
2022-09-13T10:36:02.370Z,99.90
2022-09-13T10:38:45.435Z,99.90
2022-09-13T10:41:24.315Z,99.90
2022-09-13T10:44:00.206Z,99.90
2022-09-13T10:46:36.711Z,99.90
2022-09-13T10:49:03.874Z,99.90
2022-09-13T10:51:38.528Z,99.90
2022-09-13T10:54:20.213Z,99.90
2022-09-13T10:56:48.934Z,99.90
2022-09-13T10:59:29.604Z,99.90
2022-09-13T11:02:18.813Z,99.90
2022-09-13T11:05:22.668Z,99.90
2022-09-13T11:08:55.559Z,99.90
2022-09-13T11:11:41.100Z,99.90
2022-09-13T11:14:20.284Z,99.90
2022-09-13T11:17:38.277Z,99.90
2022-09-13T11:20:33.448Z,99.80
2022-09-13T11:23:05.851Z,99.10
2022-09-13T11:26:16.355Z,97.60
2022-09-13T11:28:58.804Z,99.30
2022-09-13T11:31:42.717Z,99.50
2022-09-13T11:34:33.184Z,99.80
2022-09-13T11:37:40.073Z,99.80
2022-09-13T11:40:49.560Z,99.90
2022-09-13T11:43:35.683Z,99.80
2022-09-13T11:46:14.654Z,98.50
2022-09-13T11:49:22.114Z,98.30
2022-09-13T11:52:27.000Z,96.80
2022-09-13T11:55:16.474Z,97.00
2022-09-13T11:57:52.885Z,97.20
2022-09-13T12:00:40.597Z,97.30
2022-09-13T12:03:56.847Z,96.00
2022-09-13T12:06:30.283Z,95.20
2022-09-13T12:09:12.911Z,93.40
2022-09-13T12:11:47.006Z,92.40
2022-09-13T12:14:25.678Z,93.50
2022-09-13T12:16:59.561Z,93.10
2022-09-13T12:19:45.252Z,92.60
2022-09-13T12:22:14.367Z,92.40
2022-09-13T12:24:53.543Z,92.60
2022-09-13T12:27:54.123Z,92.20
2022-09-13T12:30:24.691Z,91.20
2022-09-13T12:32:58.144Z,90.20
2022-09-13T12:36:10.311Z,91.70
2022-09-13T12:39:24.105Z,91.40
2022-09-13T12:41:56.875Z,90.60
2022-09-13T12:45:16.919Z,90.70
2022-09-13T12:48:06.271Z,89.20
2022-09-13T12:50:52.101Z,88.50
2022-09-13T12:53:58.287Z,88.30
2022-09-13T12:56:47.001Z,89.90
2022-09-13T12:59:45.002Z,90.40
2022-09-13T13:02:54.256Z,85.80
2022-09-13T13:05:49.331Z,83.80
2022-09-13T13:08:19.698Z,86.40
2022-09-13T13:11:14.307Z,84.90
2022-09-13T13:14:02.304Z,80.90
2022-09-13T13:16:37.930Z,83.40
2022-09-13T13:19:29.695Z,81.50
2022-09-13T13:22:43.923Z,81.70
2022-09-13T13:26:01.237Z,81.40
2022-09-13T13:28:50.731Z,80.20
2022-09-13T13:31:24.469Z,78.70
2022-09-13T13:34:08.349Z,79.50
2022-09-13T13:36:41.248Z,77.20
2022-09-13T13:39:26.097Z,77.20
2022-09-13T13:42:18.701Z,76.20
2022-09-13T13:44:45.652Z,76.50
2022-09-13T13:47:15.406Z,75.70
2022-09-13T13:50:09.516Z,74.90
2022-09-13T13:52:53.089Z,74.10
2022-09-13T13:55:38.066Z,73.70
2022-09-13T13:58:07.725Z,73.70
2022-09-13T14:00:36.814Z,73.20
2022-09-13T14:03:25.703Z,74.90
2022-09-13T14:06:05.900Z,70.30
2022-09-13T14:11:49.654Z,69.20
2022-09-13T14:14:29.991Z,68.20
2022-09-13T14:17:38.813Z,67.40
2022-09-13T14:20:12.537Z,69.00
2022-09-13T14:22:39.604Z,68.30
2022-09-13T14:25:25.757Z,66.20
2022-09-13T14:27:58.466Z,64.10
2022-09-13T14:30:30.027Z,67.10
2022-09-13T14:32:58.539Z,67.70
2022-09-13T14:35:41.333Z,67.10
2022-09-13T14:38:33.671Z,66.70
2022-09-13T14:41:10.268Z,64.50
2022-09-13T14:43:37.446Z,64.60
2022-09-13T14:46:34.214Z,67.40
2022-09-13T14:49:06.944Z,69.60
2022-09-13T14:51:49.079Z,70.10
2022-09-13T14:54:42.983Z,68.50
2022-09-13T14:57:30.721Z,67.10
2022-09-13T15:00:16.207Z,66.10
2022-09-13T15:02:52.048Z,67.50
2022-09-13T15:05:25.306Z,69.10
2022-09-13T15:07:52.430Z,68.60
2022-09-13T15:10:26.112Z,68.30
2022-09-13T15:12:57.873Z,71.80
2022-09-13T15:15:38.718Z,73.90
2022-09-13T15:18:08.917Z,73.80
2022-09-13T15:21:04.082Z,75.10
2022-09-13T15:23:48.901Z,76.30
2022-09-13T15:26:28.165Z,76.40
2022-09-13T15:29:04.284Z,76.90
2022-09-13T15:31:34.902Z,78.50
2022-09-13T15:34:17.510Z,78.60
2022-09-13T15:36:46.813Z,78.20
2022-09-13T15:39:18.872Z,78.70
2022-09-13T15:42:00.568Z,79.40
2022-09-13T15:44:32.460Z,79.20
2022-09-13T15:47:08.421Z,80.00
2022-09-13T15:49:37.736Z,79.10
2022-09-13T15:52:05.829Z,80.70
2022-09-13T15:54:34.465Z,81.70
2022-09-13T15:57:27.161Z,82.10
2022-09-13T16:00:01.461Z,80.80
2022-09-13T16:02:33.328Z,81.20
2022-09-13T16:05:00.582Z,81.80
2022-09-13T16:07:27.943Z,81.20
2022-09-13T16:09:55.340Z,82.50
2022-09-13T16:12:24.606Z,84.40
2022-09-13T16:14:51.970Z,83.30
2022-09-13T16:17:28.575Z,82.60
2022-09-13T16:19:55.888Z,84.30
2022-09-13T16:22:23.776Z,85.00
2022-09-13T16:24:51.204Z,86.20
2022-09-13T16:27:20.620Z,87.20
2022-09-13T16:29:48.011Z,88.30
2022-09-13T16:32:15.710Z,89.00
2022-09-13T16:34:42.916Z,88.80
2022-09-13T16:37:19.033Z,87.00
2022-09-13T16:39:46.401Z,86.80
2022-09-13T16:42:17.683Z,87.60
2022-09-13T16:44:45.320Z,89.00
2022-09-13T16:47:12.536Z,86.00
2022-09-13T16:49:39.682Z,85.60
2022-09-13T16:52:10.457Z,84.00
2022-09-13T16:54:37.888Z,83.20
2022-09-13T16:57:06.749Z,84.30
2022-09-13T16:59:34.345Z,83.00
2022-09-13T17:02:01.587Z,83.40
2022-09-13T17:04:28.859Z,83.20
2022-09-13T17:06:56.316Z,83.70
2022-09-13T17:09:26.573Z,83.60
2022-09-13T17:11:57.436Z,83.10
2022-09-13T17:14:24.600Z,83.60
2022-09-13T17:16:55.932Z,84.10
2022-09-13T17:19:35.815Z,85.20
2022-09-13T17:22:06.166Z,84.40
2022-09-13T17:24:34.566Z,85.30
2022-09-13T17:27:02.098Z,87.00
2022-09-13T17:29:31.109Z,85.80
2022-09-13T17:32:03.308Z,86.40
2022-09-13T17:34:32.489Z,86.70
2022-09-13T17:36:59.532Z,87.20
2022-09-13T17:39:31.001Z,87.70
2022-09-13T17:42:01.571Z,87.80
2022-09-13T17:44:28.999Z,88.20
2022-09-13T17:46:59.644Z,88.40
2022-09-13T17:49:27.153Z,88.80
2022-09-13T17:51:58.000Z,89.00
2022-09-13T17:54:26.161Z,89.30
2022-09-13T17:56:53.770Z,89.70
2022-09-13T17:59:22.222Z,90.00
2022-09-13T18:01:53.397Z,90.30
2022-09-13T18:04:23.794Z,90.90
2022-09-13T18:06:53.244Z,91.00
2022-09-13T18:09:21.596Z,91.00
2022-09-13T18:11:50.742Z,91.40
2022-09-13T18:14:19.855Z,91.70
2022-09-13T18:16:55.825Z,91.70
2022-09-13T18:19:44.850Z,92.00
2022-09-13T18:22:13.105Z,92.90
2022-09-13T18:24:41.049Z,92.80
2022-09-13T18:27:08.630Z,92.30
2022-09-13T18:29:36.202Z,92.30
2022-09-13T18:32:03.733Z,92.30
2022-09-13T18:34:31.308Z,92.40
2022-09-13T18:36:59.004Z,92.60
2022-09-13T18:39:26.803Z,92.70
2022-09-13T18:41:57.100Z,93.10
2022-09-13T18:44:30.861Z,93.60
2022-09-13T18:46:59.109Z,94.50
2022-09-13T18:49:27.257Z,94.70
2022-09-13T18:51:58.477Z,94.80
2022-09-13T18:54:26.395Z,95.10
2022-09-13T18:56:55.483Z,95.30
2022-09-13T18:59:25.634Z,95.40
2022-09-13T19:01:53.373Z,95.40
2022-09-13T19:04:21.681Z,95.60
2022-09-13T19:06:53.738Z,95.60
2022-09-13T19:09:24.816Z,96.00
2022-09-13T19:11:54.348Z,96.50
2022-09-13T19:14:28.018Z,96.80
2022-09-13T19:17:04.907Z,97.40
2022-09-13T19:19:35.783Z,97.80
2022-09-13T19:22:05.228Z,98.30
2022-09-13T19:24:38.264Z,98.90
2022-09-13T19:27:06.171Z,99.50
2022-09-13T19:29:33.853Z,99.90
2022-09-13T19:32:04.994Z,99.90
2022-09-13T19:34:32.586Z,99.90
2022-09-13T19:37:01.510Z,99.90
2022-09-13T19:39:33.087Z,99.90
2022-09-13T19:42:04.541Z,99.90
2022-09-13T19:44:35.854Z,99.90
2022-09-13T19:47:53.078Z,99.90
2022-09-13T19:49:54.216Z,99.90
2022-09-13T19:52:22.244Z,99.90
2022-09-13T19:54:56.663Z,99.90
2022-09-13T19:57:27.849Z,99.90
2022-09-13T19:59:56.536Z,99.90
2022-09-13T20:02:30.855Z,99.90
2022-09-13T20:05:02.223Z,99.90
2022-09-13T20:07:30.322Z,99.90
2022-09-13T20:10:01.621Z,99.90
2022-09-13T20:12:36.347Z,99.90
2022-09-13T20:15:11.053Z,99.90
2022-09-13T20:17:42.458Z,99.90
2022-09-13T20:20:13.154Z,99.90
2022-09-13T20:22:44.702Z,99.90
2022-09-13T20:25:16.491Z,99.90
2022-09-13T20:27:45.679Z,99.90
2022-09-13T20:30:16.331Z,99.90
2022-09-13T20:32:47.363Z,99.90
2022-09-13T20:35:18.401Z,99.90
2022-09-13T20:37:46.581Z,99.90
2022-09-13T20:40:18.040Z,99.90
2022-09-13T20:42:46.831Z,99.90
2022-09-13T20:45:17.011Z,99.90
2022-09-13T20:47:45.737Z,99.90
2022-09-13T20:50:13.481Z,99.90
2022-09-13T20:52:41.143Z,99.90
2022-09-13T20:55:12.063Z,99.90
2022-09-13T20:57:42.834Z,99.90
2022-09-13T21:00:12.065Z,99.90
2022-09-13T21:02:39.142Z,99.90
2022-09-13T21:05:06.714Z,99.90
2022-09-13T21:07:52.252Z,99.90
2022-09-13T21:10:19.821Z,99.90
2022-09-13T21:12:53.722Z,99.90
2022-09-13T21:15:20.957Z,99.90
2022-09-13T21:17:48.037Z,99.90
2022-09-13T21:20:15.821Z,99.90
2022-09-13T21:22:43.817Z,99.90
2022-09-13T21:25:11.053Z,99.90
2022-09-13T21:27:38.203Z,99.90
2022-09-13T21:30:08.186Z,99.90
2022-09-13T21:32:35.238Z,99.90
2022-09-13T21:35:02.786Z,99.90
2022-09-13T21:37:29.859Z,99.90
2022-09-13T21:39:57.032Z,99.90
2022-09-13T21:42:24.194Z,99.90
2022-09-13T21:44:51.549Z,99.90
2022-09-13T21:47:22.057Z,99.90
2022-09-13T21:49:49.200Z,99.90
2022-09-13T21:52:16.694Z,99.90
2022-09-13T21:54:47.065Z,99.90
2022-09-13T21:57:14.590Z,99.90
2022-09-13T21:59:41.682Z,99.90
2022-09-13T22:02:08.880Z,99.90
2022-09-13T22:04:35.938Z,99.90
2022-09-13T22:07:06.334Z,99.90
2022-09-13T22:09:33.353Z,99.90
2022-09-13T22:12:00.998Z,99.90
2022-09-13T22:14:28.256Z,99.90
2022-09-13T22:16:55.605Z,99.90
2022-09-13T22:19:26.535Z,99.90
2022-09-13T22:21:57.034Z,99.90
2022-09-13T22:24:26.067Z,99.90
2022-09-13T22:26:56.342Z,99.90
2022-09-13T22:29:23.570Z,99.90
2022-09-13T22:31:54.716Z,99.90
2022-09-13T22:34:24.897Z,99.90
2022-09-13T22:36:55.307Z,99.90
2022-09-13T22:39:22.686Z,99.90
2022-09-13T22:41:50.287Z,99.90
2022-09-13T22:44:20.736Z,99.90
2022-09-13T22:46:48.202Z,99.90
2022-09-13T22:49:19.969Z,99.90
2022-09-13T22:51:50.402Z,99.90
2022-09-13T22:54:19.170Z,99.90
2022-09-13T22:56:46.878Z,99.90
2022-09-13T22:59:18.092Z,99.90
2022-09-13T23:01:45.617Z,99.90
2022-09-13T23:04:16.011Z,99.90
2022-09-13T23:06:46.708Z,99.90
2022-09-13T23:09:18.677Z,99.90
2022-09-13T23:11:46.468Z,99.90
2022-09-13T23:14:16.039Z,99.90
2022-09-13T23:16:46.854Z,99.90
2022-09-13T23:19:15.388Z,99.90
2022-09-13T23:21:43.907Z,99.90
2022-09-13T23:24:16.880Z,99.90
2022-09-13T23:26:45.260Z,99.90
2022-09-13T23:29:17.047Z,99.90
2022-09-13T23:31:44.705Z,99.90
2022-09-13T23:34:12.993Z,99.90
2022-09-13T23:36:44.682Z,99.90
2022-09-13T23:39:16.813Z,99.90
2022-09-13T23:41:49.590Z,99.90
2022-09-13T23:44:17.321Z,99.90
2022-09-13T23:46:45.259Z,99.90
2022-09-13T23:49:12.412Z,99.90
2022-09-13T23:51:39.508Z,99.90
2022-09-13T23:54:06.918Z,99.90
2022-09-13T23:56:37.109Z,99.90
2022-09-13T23:59:06.264Z,99.90
